Time;durP1;ratioP1;P1;durP2;ratioP2;P2;SDS_P1;SDS_P2;PMS_P1;PMS_P2;Temp;Humidity;BMP_temperature;BMP_pressure;BME280_temperature;BME280_humidity;BME280_pressure;Samples;Min_cycle;Max_cycle;Signal;HPM_P1;HPM_P2
2021/08/15 00:00:30;;;;;;;12.18;7.07;;;17.60;99.90;;;;;;5049243;28;20182;-47
2021/08/15 00:02:56;;;;;;;14.02;6.80;;;17.60;99.90;;;;;;5048918;28;20427;-47
2021/08/15 00:05:22;;;;;;;12.82;7.32;;;17.60;99.90;;;;;;5049246;28;20029;-46
2021/08/15 00:07:47;;;;;;;14.68;6.53;;;17.50;99.90;;;;;;5047486;28;20021;-46
2021/08/15 00:10:13;;;;;;;9.50;6.07;;;17.50;99.90;;;;;;5049474;28;20475;-46
2021/08/15 00:12:40;;;;;;;10.27;5.72;;;17.50;99.90;;;;;;5049185;28;20029;-46
2021/08/15 00:15:09;;;;;;;8.65;5.93;;;17.40;99.90;;;;;;5049279;28;20184;-47
2021/08/15 00:17:34;;;;;;;10.27;5.95;;;17.40;99.90;;;;;;5048625;28;20043;-47
2021/08/15 00:19:59;;;;;;;11.48;6.05;;;17.40;99.90;;;;;;5049045;28;20029;-47
2021/08/15 00:22:25;;;;;;;11.68;6.70;;;17.30;99.90;;;;;;5049232;28;20029;-47
2021/08/15 00:24:51;;;;;;;12.98;6.70;;;17.30;99.90;;;;;;5049188;28;20021;-46
2021/08/15 00:27:16;;;;;;;13.48;6.90;;;17.20;99.90;;;;;;5048275;28;20036;-46
2021/08/15 00:29:42;;;;;;;14.20;7.07;;;17.20;99.90;;;;;;5048916;28;20051;-47
2021/08/15 00:32:07;;;;;;;12.50;7.47;;;17.20;99.90;;;;;;5048955;28;20021;-50
2021/08/15 00:34:33;;;;;;;13.10;7.22;;;17.10;99.90;;;;;;5048811;28;20021;-48
2021/08/15 00:36:59;;;;;;;17.08;7.45;;;17.10;99.90;;;;;;5048084;28;20390;-46
2021/08/15 00:39:24;;;;;;;13.88;6.80;;;17.10;99.90;;;;;;5049083;28;20280;-49
2021/08/15 00:41:50;;;;;;;23.52;8.55;;;17.10;99.90;;;;;;5048472;28;20029;-48
2021/08/15 00:44:16;;;;;;;18.42;7.00;;;17.10;99.90;;;;;;5048439;28;20025;-46
2021/08/15 00:46:42;;;;;;;13.75;7.00;;;17.10;99.90;;;;;;5046528;28;20121;-46
2021/08/15 00:49:08;;;;;;;10.07;6.68;;;17.10;99.90;;;;;;5047212;28;20059;-47
2021/08/15 00:51:33;;;;;;;14.10;7.68;;;17.00;99.90;;;;;;5048641;28;20059;-46
2021/08/15 00:53:59;;;;;;;12.05;6.97;;;17.00;99.90;;;;;;5047025;28;20013;-47
2021/08/15 00:56:26;;;;;;;10.25;6.60;;;16.90;99.90;;;;;;5047915;28;20499;-47
2021/08/15 00:58:52;;;;;;;11.98;7.25;;;16.80;99.90;;;;;;5048487;28;20486;-46
2021/08/15 01:01:18;;;;;;;12.02;7.05;;;16.90;99.90;;;;;;5048349;28;20037;-48
2021/08/15 01:03:44;;;;;;;13.70;7.70;;;16.90;99.90;;;;;;5048553;28;20037;-47
2021/08/15 01:06:10;;;;;;;16.25;8.00;;;16.90;99.90;;;;;;5047681;28;20167;-47
2021/08/15 01:08:37;;;;;;;13.95;7.28;;;16.80;99.90;;;;;;5048766;28;20387;-46
2021/08/15 01:11:04;;;;;;;15.18;9.00;;;16.90;99.90;;;;;;5048473;28;20032;-47
2021/08/15 01:13:31;;;;;;;15.82;7.80;;;16.80;99.90;;;;;;5049164;28;20123;-47
2021/08/15 01:15:57;;;;;;;18.98;8.40;;;16.80;99.90;;;;;;5052249;28;20100;-47
2021/08/15 01:18:25;;;;;;;17.20;7.95;;;16.80;99.90;;;;;;5051852;28;20124;-47
2021/08/15 01:21:12;;;;;;;17.20;7.70;;;16.90;99.90;;;;;;5052470;28;20025;-47
2021/08/15 01:23:40;;;;;;;15.73;7.53;;;16.80;99.90;;;;;;5051082;28;20581;-47
2021/08/15 01:26:08;;;;;;;20.23;8.82;;;16.80;99.90;;;;;;5051675;28;20124;-47
2021/08/15 01:28:33;;;;;;;17.25;8.30;;;16.80;99.90;;;;;;5052131;28;20021;-47
2021/08/15 01:30:59;;;;;;;16.92;7.93;;;16.80;99.90;;;;;;5052114;28;20021;-47
2021/08/15 01:33:26;;;;;;;12.82;7.35;;;16.80;99.90;;;;;;5051976;28;20021;-47
2021/08/15 01:35:53;;;;;;;12.75;6.88;;;16.80;99.90;;;;;;5051846;28;20025;-47
2021/08/15 01:38:19;;;;;;;22.02;8.13;;;16.70;99.90;;;;;;5051301;28;20329;-47
2021/08/15 01:40:45;;;;;;;14.05;7.97;;;16.70;99.90;;;;;;5052092;28;20025;-48
2021/08/15 01:43:10;;;;;;;12.65;7.30;;;16.70;99.90;;;;;;5050746;28;20031;-47
2021/08/15 01:45:36;;;;;;;17.13;8.65;;;16.70;99.90;;;;;;5051930;28;20029;-48
2021/08/15 01:48:02;;;;;;;18.20;7.97;;;16.70;99.90;;;;;;5051407;28;20159;-46
2021/08/15 01:50:27;;;;;;;19.25;8.82;;;16.70;99.90;;;;;;5051582;28;20127;-47
2021/08/15 01:52:53;;;;;;;13.77;8.20;;;16.70;99.90;;;;;;5051667;28;20021;-48
2021/08/15 01:55:18;;;;;;;14.48;7.78;;;16.70;99.90;;;;;;5051525;28;20043;-47
2021/08/15 01:57:43;;;;;;;17.02;8.30;;;16.70;99.90;;;;;;5055615;28;20536;-47
2021/08/15 02:00:10;;;;;;;15.35;7.65;;;16.60;99.90;;;;;;5062178;28;20017;-47
2021/08/15 02:02:39;;;;;;;16.25;8.20;;;16.60;99.90;;;;;;5059493;28;20524;-47
2021/08/15 02:05:05;;;;;;;12.60;7.13;;;16.50;99.90;;;;;;5062055;28;20471;-47
2021/08/15 02:07:31;;;;;;;19.58;8.57;;;16.50;99.90;;;;;;5061088;28;20109;-47
2021/08/15 02:09:56;;;;;;;17.13;8.57;;;16.50;99.90;;;;;;5062639;28;20539;-46
2021/08/15 02:12:22;;;;;;;14.95;8.10;;;16.40;99.90;;;;;;5060019;28;20104;-47
2021/08/15 02:14:47;;;;;;;12.25;7.82;;;16.40;99.90;;;;;;5060907;28;20016;-47
2021/08/15 02:17:12;;;;;;;14.63;8.20;;;16.40;99.90;;;;;;5061040;28;20039;-46
2021/08/15 02:19:38;;;;;;;16.95;8.02;;;16.30;99.90;;;;;;5071203;28;20032;-46
2021/08/15 02:22:04;;;;;;;18.40;8.07;;;16.30;99.90;;;;;;5067954;28;20490;-46
2021/08/15 02:24:29;;;;;;;14.52;8.82;;;16.30;99.90;;;;;;5059899;28;20032;-46
2021/08/15 02:26:55;;;;;;;15.73;8.45;;;16.30;99.90;;;;;;5061020;28;20033;-46
2021/08/15 02:29:20;;;;;;;18.65;8.48;;;16.20;99.90;;;;;;5059695;28;20021;-45
2021/08/15 02:31:46;;;;;;;14.70;7.57;;;16.30;99.90;;;;;;5059931;28;20426;-46
2021/08/15 02:34:11;;;;;;;15.60;7.70;;;16.20;99.90;;;;;;5060941;28;20017;-45
2021/08/15 02:36:37;;;;;;;16.45;8.63;;;16.20;99.90;;;;;;5061192;28;20504;-45
2021/08/15 02:39:03;;;;;;;15.00;7.70;;;16.20;99.90;;;;;;5059969;28;20059;-46
2021/08/15 02:41:28;;;;;;;21.48;7.85;;;16.20;99.90;;;;;;5059472;28;20035;-47
2021/08/15 02:43:54;;;;;;;17.27;7.82;;;16.20;99.90;;;;;;5052995;28;20041;-47
2021/08/15 02:46:19;;;;;;;12.50;7.72;;;16.20;99.90;;;;;;5050170;28;20483;-46
2021/08/15 02:48:44;;;;;;;15.48;8.15;;;16.20;99.90;;;;;;5050753;28;20025;-47
2021/08/15 02:51:10;;;;;;;19.45;8.25;;;16.20;99.90;;;;;;5050791;28;20025;-50
2021/08/15 02:53:35;;;;;;;16.67;7.72;;;16.20;99.90;;;;;;5050776;28;20102;-47
2021/08/15 02:56:01;;;;;;;13.43;7.60;;;16.20;99.90;;;;;;5050503;28;20055;-47
2021/08/15 02:58:27;;;;;;;16.88;8.02;;;16.20;99.90;;;;;;5050005;28;20072;-47
2021/08/15 03:00:54;;;;;;;11.75;6.97;;;16.10;99.90;;;;;;5050468;28;20477;-47
2021/08/15 03:03:19;;;;;;;16.67;7.75;;;16.10;99.90;;;;;;5050778;28;20418;-46
2021/08/15 03:05:45;;;;;;;19.88;8.07;;;16.10;99.90;;;;;;5050280;28;20024;-49
2021/08/15 03:08:10;;;;;;;18.10;7.82;;;16.10;99.90;;;;;;5049910;28;20439;-48
2021/08/15 03:10:36;;;;;;;19.50;8.90;;;16.10;99.90;;;;;;5050370;28;20021;-46
2021/08/15 03:13:05;;;;;;;19.02;8.93;;;16.00;99.90;;;;;;5048789;28;20052;-46
2021/08/15 03:15:31;;;;;;;17.25;8.48;;;15.90;99.90;;;;;;5050169;28;20102;-47
2021/08/15 03:17:57;;;;;;;17.55;7.88;;;15.90;99.90;;;;;;5049445;28;20024;-48
2021/08/15 03:20:22;;;;;;;13.90;8.38;;;15.80;99.90;;;;;;5050024;28;20032;-46
2021/08/15 03:22:48;;;;;;;18.23;9.32;;;15.80;99.90;;;;;;5050224;28;20029;-46
2021/08/15 03:25:13;;;;;;;18.25;8.52;;;15.70;99.90;;;;;;5050069;28;20033;-46
2021/08/15 03:27:39;;;;;;;20.38;9.52;;;15.70;99.90;;;;;;5049344;28;20111;-47
2021/08/15 03:30:05;;;;;;;17.67;9.32;;;15.60;99.90;;;;;;5049866;28;20017;-46
2021/08/15 03:32:30;;;;;;;19.83;8.63;;;15.50;99.90;;;;;;5049587;28;20017;-46
2021/08/15 03:34:56;;;;;;;22.40;8.75;;;15.50;99.90;;;;;;5049728;28;20040;-47
2021/08/15 03:37:21;;;;;;;19.50;9.00;;;15.50;99.90;;;;;;5048425;28;20443;-46
2021/08/15 03:39:47;;;;;;;17.52;8.68;;;15.40;99.90;;;;;;5049689;28;20025;-46
2021/08/15 03:42:13;;;;;;;13.27;8.57;;;15.40;99.90;;;;;;5048238;28;20396;-46
2021/08/15 03:44:38;;;;;;;14.13;7.82;;;15.40;99.90;;;;;;5048177;28;20509;-46
2021/08/15 03:47:04;;;;;;;12.75;8.07;;;15.30;99.90;;;;;;5047233;28;20102;-46
2021/08/15 03:49:29;;;;;;;19.90;9.88;;;15.30;99.90;;;;;;5049394;28;20501;-47
2021/08/15 03:51:56;;;;;;;18.08;9.45;;;15.40;99.90;;;;;;5048174;28;20029;-46
2021/08/15 03:54:22;;;;;;;21.10;11.27;;;15.30;99.90;;;;;;5049331;28;20017;-46
2021/08/15 03:56:48;;;;;;;21.77;10.75;;;15.30;99.90;;;;;;5048780;28;20501;-47
2021/08/15 03:59:15;;;;;;;17.70;9.68;;;15.30;99.90;;;;;;5049148;28;20040;-47
2021/08/15 04:01:40;;;;;;;23.60;10.70;;;15.30;99.90;;;;;;5049605;28;20280;-49
2021/08/15 04:04:06;;;;;;;22.35;10.70;;;15.20;99.90;;;;;;5049304;28;20111;-47
2021/08/15 04:06:33;;;;;;;19.75;10.15;;;15.10;99.90;;;;;;5048841;28;20178;-50
2021/08/15 04:09:01;;;;;;;22.63;11.32;;;15.10;99.90;;;;;;5049213;28;20051;-47
2021/08/15 04:11:26;;;;;;;20.27;10.00;;;15.10;99.90;;;;;;5048994;28;20028;-47
2021/08/15 04:13:52;;;;;;;22.80;10.70;;;15.10;99.90;;;;;;5049008;28;20033;-47
2021/08/15 04:16:17;;;;;;;19.27;10.55;;;15.10;99.90;;;;;;5048299;28;20043;-49
2021/08/15 04:18:43;;;;;;;23.13;10.50;;;15.00;99.90;;;;;;5048620;28;20676;-47
2021/08/15 04:21:08;;;;;;;21.23;9.95;;;15.10;99.90;;;;;;5049091;28;20339;-47
2021/08/15 04:23:34;;;;;;;22.85;10.50;;;15.10;99.90;;;;;;5049413;28;20036;-47
2021/08/15 04:25:59;;;;;;;20.67;10.20;;;15.10;99.90;;;;;;5048811;28;20474;-49
2021/08/15 04:28:26;;;;;;;21.60;9.82;;;15.10;99.90;;;;;;5048326;28;20039;-46
2021/08/15 04:30:52;;;;;;;22.05;9.40;;;15.10;99.90;;;;;;5048681;28;20021;-47
2021/08/15 04:33:20;;;;;;;19.02;9.02;;;15.20;99.90;;;;;;5047479;28;20047;-47
2021/08/15 04:35:46;;;;;;;24.85;11.07;;;15.20;99.90;;;;;;5047172;28;20029;-47
2021/08/15 04:38:11;;;;;;;22.25;9.98;;;15.30;99.90;;;;;;5048193;28;20029;-47
2021/08/15 04:40:37;;;;;;;20.30;9.95;;;15.30;99.90;;;;;;5048553;28;20033;-47
2021/08/15 04:43:02;;;;;;;15.32;10.07;;;15.30;99.90;;;;;;5048658;28;20032;-47
2021/08/15 04:45:28;;;;;;;22.25;9.63;;;15.40;99.90;;;;;;5048518;28;20047;-46
2021/08/15 04:47:53;;;;;;;20.80;9.55;;;15.40;99.90;;;;;;5062441;28;20346;-47
2021/08/15 04:50:19;;;;;;;16.98;9.63;;;15.40;99.90;;;;;;5062354;28;20028;-46
2021/08/15 04:52:44;;;;;;;19.27;9.05;;;15.50;99.90;;;;;;5057112;28;20067;-47
2021/08/15 04:55:11;;;;;;;19.08;9.55;;;15.60;99.90;;;;;;5055091;28;20024;-47
2021/08/15 04:57:37;;;;;;;17.85;8.02;;;15.60;99.90;;;;;;5055686;28;20043;-46
2021/08/15 05:00:04;;;;;;;20.17;8.75;;;15.60;99.90;;;;;;5057802;28;20028;-47
2021/08/15 05:02:30;;;;;;;16.25;8.30;;;15.60;99.90;;;;;;5056985;28;20021;-46
2021/08/15 05:04:56;;;;;;;15.88;8.13;;;15.70;99.90;;;;;;5055309;28;20493;-44
2021/08/15 05:07:21;;;;;;;22.80;8.73;;;15.80;99.90;;;;;;5059082;28;20512;-46
2021/08/15 05:09:46;;;;;;;16.98;8.20;;;15.90;99.90;;;;;;5057865;28;20033;-46
2021/08/15 05:12:12;;;;;;;17.52;8.75;;;15.90;99.90;;;;;;5057742;28;20056;-48
2021/08/15 05:14:37;;;;;;;20.13;8.10;;;16.00;99.90;;;;;;5058376;28;20052;-46
2021/08/15 05:17:03;;;;;;;16.33;7.25;;;16.10;99.90;;;;;;5058516;28;20071;-49
2021/08/15 05:19:30;;;;;;;13.20;6.80;;;16.20;99.90;;;;;;5057980;28;20186;-46
2021/08/15 05:21:56;;;;;;;20.45;8.63;;;16.30;99.90;;;;;;5056957;28;20025;-46
2021/08/15 05:24:21;;;;;;;24.75;9.02;;;16.20;99.90;;;;;;5065988;28;20048;-46
2021/08/15 05:26:47;;;;;;;16.23;7.50;;;16.10;99.90;;;;;;5067581;28;20551;-46
2021/08/15 05:29:12;;;;;;;17.38;8.73;;;16.10;99.90;;;;;;5068072;28;20029;-48
2021/08/15 05:31:38;;;;;;;19.60;7.57;;;16.00;99.90;;;;;;5068266;28;20029;-48
2021/08/15 05:34:03;;;;;;;22.27;8.85;;;16.10;99.90;;;;;;5066712;28;20032;-47
2021/08/15 05:36:29;;;;;;;16.02;8.48;;;16.20;99.90;;;;;;5067356;28;20081;-46
2021/08/15 05:38:54;;;;;;;20.13;8.07;;;16.10;99.90;;;;;;5068108;28;20432;-46
2021/08/15 05:41:20;;;;;;;15.82;7.97;;;16.20;99.90;;;;;;5068031;28;20020;-47
2021/08/15 05:43:45;;;;;;;15.68;7.40;;;16.20;99.90;;;;;;5067888;28;20028;-46
2021/08/15 05:46:11;;;;;;;17.25;7.60;;;16.30;99.90;;;;;;5067245;28;20060;-46
2021/08/15 05:48:36;;;;;;;14.88;7.00;;;16.30;99.90;;;;;;5067915;28;20482;-46
2021/08/15 05:51:04;;;;;;;20.48;6.88;;;16.40;99.90;;;;;;5067896;28;20092;-49
2021/08/15 05:53:29;;;;;;;15.10;7.50;;;16.50;99.90;;;;;;5067824;28;20541;-46
2021/08/15 05:55:54;;;;;;;21.02;7.90;;;16.60;99.90;;;;;;5067771;28;20117;-47
2021/08/15 05:58:20;;;;;;;15.98;7.07;;;16.70;99.90;;;;;;5067214;28;20408;-47
2021/08/15 06:00:49;;;;;;;16.55;7.57;;;16.70;99.90;;;;;;5070574;28;20029;-46
2021/08/15 06:03:14;;;;;;;28.50;8.05;;;16.70;99.90;;;;;;5069975;28;20396;-48
2021/08/15 06:05:40;;;;;;;21.83;8.65;;;16.80;99.90;;;;;;5071423;28;20089;-47
2021/08/15 06:08:06;;;;;;;17.73;8.73;;;16.80;99.90;;;;;;5070692;28;20572;-46
2021/08/15 06:10:32;;;;;;;20.10;8.50;;;17.00;99.90;;;;;;5071284;28;20435;-46
2021/08/15 06:12:58;;;;;;;17.13;7.90;;;17.10;99.90;;;;;;5071727;28;20152;-48
2021/08/15 06:15:24;;;;;;;15.63;8.32;;;17.10;99.90;;;;;;5071385;28;20017;-47
2021/08/15 06:17:50;;;;;;;17.50;8.68;;;17.30;99.90;;;;;;5070485;28;20510;-48
2021/08/15 06:20:16;;;;;;;18.65;7.53;;;17.40;99.90;;;;;;5071124;28;20031;-48
2021/08/15 06:22:44;;;;;;;22.40;8.90;;;17.50;99.90;;;;;;5065153;28;20104;-46
2021/08/15 06:25:10;;;;;;;23.67;10.07;;;17.60;99.90;;;;;;5071405;28;20043;-46
2021/08/15 06:27:36;;;;;;;14.77;6.70;;;17.70;99.90;;;;;;5069029;28;20035;-49
2021/08/15 06:30:03;;;;;;;15.93;8.07;;;17.70;99.90;;;;;;5071110;28;20485;-46
2021/08/15 06:32:29;;;;;;;17.42;7.70;;;17.80;99.90;;;;;;5070836;28;20032;-46
2021/08/15 06:34:54;;;;;;;19.42;8.98;;;17.80;99.90;;;;;;5069882;28;20382;-46
2021/08/15 06:37:20;;;;;;;16.67;8.05;;;17.90;99.90;;;;;;5059170;28;20032;-47
2021/08/15 06:39:45;;;;;;;25.80;9.15;;;18.00;99.90;;;;;;5060451;28;20036;-47
2021/08/15 06:42:11;;;;;;;13.13;7.65;;;17.90;99.90;;;;;;5069343;28;20043;-47
2021/08/15 06:44:37;;;;;;;18.63;8.82;;;18.00;99.90;;;;;;5070672;28;20035;-46
2021/08/15 06:47:04;;;;;;;17.85;8.25;;;18.00;99.90;;;;;;5068740;28;20024;-46
2021/08/15 06:49:30;;;;;;;21.75;8.23;;;18.10;99.90;;;;;;5061864;28;20024;-46
2021/08/15 06:51:56;;;;;;;16.08;8.43;;;18.20;99.90;;;;;;5056061;28;20070;-47
2021/08/15 06:54:22;;;;;;;16.92;8.15;;;18.20;99.90;;;;;;5050774;28;20029;-47
2021/08/15 06:56:48;;;;;;;21.83;9.00;;;18.30;99.90;;;;;;5048926;28;20017;-47
2021/08/15 06:59:15;;;;;;;22.60;8.68;;;18.40;99.90;;;;;;5050136;28;20483;-48
2021/08/15 07:01:42;;;;;;;18.10;8.25;;;18.40;99.90;;;;;;5050156;28;20096;-46
2021/08/15 07:04:08;;;;;;;20.13;9.95;;;18.60;99.90;;;;;;5052839;28;20122;-47
2021/08/15 07:06:33;;;;;;;18.13;9.75;;;18.60;99.90;;;;;;5050067;28;20535;-46
2021/08/15 07:08:59;;;;;;;25.75;9.35;;;18.70;99.90;;;;;;5050649;28;20029;-45
2021/08/15 07:11:24;;;;;;;19.45;8.95;;;18.90;99.90;;;;;;5049965;28;20061;-46
2021/08/15 07:13:50;;;;;;;22.45;9.00;;;19.20;99.90;;;;;;5050483;28;20426;-46
2021/08/15 07:16:15;;;;;;;16.17;8.60;;;19.40;99.90;;;;;;5049823;28;20407;-46
2021/08/15 07:18:41;;;;;;;17.85;8.20;;;19.60;99.90;;;;;;5050285;28;20032;-47
2021/08/15 07:21:07;;;;;;;20.25;7.78;;;19.80;99.90;;;;;;5048942;28;20275;-45
2021/08/15 07:23:32;;;;;;;18.10;7.97;;;19.90;99.90;;;;;;5050016;28;20112;-46
2021/08/15 07:25:58;;;;;;;19.13;8.38;;;20.20;99.90;;;;;;5049901;28;20032;-47
2021/08/15 07:28:23;;;;;;;16.65;8.05;;;20.30;99.90;;;;;;5049415;28;20033;-47
2021/08/15 07:30:49;;;;;;;14.77;7.53;;;20.40;99.90;;;;;;5049848;28;20079;-47
2021/08/15 07:33:14;;;;;;;17.13;7.88;;;20.60;99.90;;;;;;5049871;28;20512;-47
2021/08/15 07:35:40;;;;;;;21.70;7.65;;;20.70;99.90;;;;;;5049801;28;20053;-47
2021/08/15 07:38:06;;;;;;;18.83;8.65;;;20.80;99.90;;;;;;5049180;28;20337;-47
2021/08/15 07:40:32;;;;;;;18.73;8.85;;;20.70;99.90;;;;;;5049827;28;20096;-46
2021/08/15 07:42:59;;;;;;;18.08;7.93;;;20.70;99.90;;;;;;5049958;28;20033;-47
2021/08/15 07:45:26;;;;;;;20.42;7.85;;;20.90;99.90;;;;;;5049503;28;20033;-47
2021/08/15 07:47:53;;;;;;;18.90;8.70;;;21.10;99.90;;;;;;5050553;28;20478;-49
2021/08/15 07:50:19;;;;;;;17.85;8.00;;;21.20;99.90;;;;;;5049539;28;20260;-47
2021/08/15 07:52:45;;;;;;;22.17;8.20;;;21.20;99.90;;;;;;5053262;28;20111;-47
2021/08/15 07:55:11;;;;;;;17.08;7.70;;;21.30;99.90;;;;;;5058774;28;20103;-47
2021/08/15 07:57:36;;;;;;;19.20;8.20;;;21.50;99.90;;;;;;5048769;28;20550;-47
2021/08/15 08:00:04;;;;;;;18.60;8.27;;;21.60;99.90;;;;;;5049272;28;20039;-47
2021/08/15 08:02:29;;;;;;;19.25;7.32;;;21.70;99.90;;;;;;5049285;28;20371;-46
2021/08/15 08:04:55;;;;;;;17.95;7.57;;;21.90;99.90;;;;;;5064055;28;20107;-47
2021/08/15 08:07:22;;;;;;;17.10;7.97;;;22.10;99.90;;;;;;5068286;28;20033;-48
2021/08/15 08:09:48;;;;;;;15.43;7.03;;;22.00;99.90;;;;;;5056444;28;20044;-47
2021/08/15 08:12:15;;;;;;;16.27;7.47;;;22.10;99.90;;;;;;5065615;28;20024;-47
2021/08/15 08:14:40;;;;;;;16.95;7.45;;;22.50;99.50;;;;;;5067500;28;20037;-47
2021/08/15 08:17:06;;;;;;;16.83;7.88;;;22.90;98.70;;;;;;5065626;28;20398;-47
2021/08/15 08:19:32;;;;;;;13.20;6.45;;;23.10;98.20;;;;;;5052841;28;20039;-47
2021/08/15 08:21:58;;;;;;;18.17;7.93;;;23.60;97.40;;;;;;5048532;28;20021;-50
2021/08/15 08:24:23;;;;;;;13.07;7.22;;;23.90;95.40;;;;;;5048680;28;20071;-48
2021/08/15 08:26:49;;;;;;;14.98;6.40;;;23.90;95.50;;;;;;5048138;28;20037;-48
2021/08/15 08:29:14;;;;;;;13.75;6.20;;;23.80;95.90;;;;;;5048717;28;20116;-48
2021/08/15 08:31:40;;;;;;;11.50;6.20;;;23.70;95.20;;;;;;5047777;28;20033;-47
2021/08/15 08:34:05;;;;;;;13.60;6.47;;;23.60;95.10;;;;;;5048801;28;20031;-47
2021/08/15 08:36:31;;;;;;;17.52;11.00;;;23.70;95.30;;;;;;5048439;28;20536;-47
2021/08/15 08:38:56;;;;;;;14.90;6.40;;;23.70;95.40;;;;;;5048631;28;20021;-47
2021/08/15 08:41:22;;;;;;;12.25;6.10;;;23.80;95.40;;;;;;5048402;28;20035;-49
2021/08/15 08:43:48;;;;;;;14.93;6.15;;;23.90;95.00;;;;;;5048775;28;20025;-46
2021/08/15 08:46:14;;;;;;;11.30;5.72;;;24.10;94.20;;;;;;5047923;28;20031;-47
2021/08/15 08:48:40;;;;;;;10.98;5.80;;;24.40;94.30;;;;;;5047204;28;20025;-47
2021/08/15 08:51:06;;;;;;;12.32;5.70;;;24.80;93.40;;;;;;5048360;28;20520;-47
2021/08/15 08:53:36;;;;;;;9.50;5.53;;;25.40;92.50;;;;;;5047194;28;20455;-47
2021/08/15 08:56:03;;;;;;;12.70;5.75;;;26.30;90.50;;;;;;5048385;28;20530;-47
2021/08/15 08:58:28;;;;;;;9.70;4.38;;;27.20;87.90;;;;;;5048387;28;20033;-47
2021/08/15 09:00:54;;;;;;;11.57;4.85;;;27.60;84.50;;;;;;5048420;28;20029;-48
2021/08/15 09:03:19;;;;;;;9.98;5.00;;;27.50;82.30;;;;;;5047031;28;20044;-47
2021/08/15 09:05:53;;;;;;;7.25;4.20;;;27.20;81.30;;;;;;5048125;28;20525;-48
2021/08/15 09:08:34;;;;;;;11.02;5.20;;;27.20;80.80;;;;;;5047729;28;20021;-48
2021/08/15 09:11:23;;;;;;;8.48;5.20;;;27.80;79.40;;;;;;5048380;28;20491;-48
2021/08/15 09:14:04;;;;;;;10.10;4.53;;;28.40;75.10;;;;;;5048208;28;20037;-47
2021/08/15 09:16:58;;;;;;;9.38;5.32;;;28.50;74.60;;;;;;5048004;28;20041;-49
2021/08/15 09:19:24;;;;;;;8.90;4.20;;;27.70;75.70;;;;;;5047887;28;20045;-48
2021/08/15 09:21:50;;;;;;;8.93;4.20;;;27.80;73.40;;;;;;5048281;28;20109;-47
2021/08/15 09:24:15;;;;;;;13.40;4.85;;;28.10;74.20;;;;;;5048232;28;20475;-47
2021/08/15 09:26:55;;;;;;;12.50;4.93;;;28.80;73.70;;;;;;5047357;28;20021;-47
2021/08/15 09:29:20;;;;;;;7.57;4.00;;;27.90;72.70;;;;;;5048521;28;20017;-49
2021/08/15 09:31:47;;;;;;;11.98;4.63;;;27.80;74.00;;;;;;5048456;28;20498;-47
2021/08/15 09:34:27;;;;;;;8.50;4.43;;;27.80;74.40;;;;;;5048474;28;20032;-49
2021/08/15 09:36:53;;;;;;;8.95;4.72;;;27.60;75.20;;;;;;5051688;28;20228;-47
2021/08/15 09:39:31;;;;;;;11.63;5.00;;;27.40;75.00;;;;;;5052119;28;20279;-47
2021/08/15 09:41:56;;;;;;;10.52;4.38;;;27.40;76.00;;;;;;5051903;28;20486;-47
2021/08/15 09:44:31;;;;;;;9.93;4.13;;;28.40;72.90;;;;;;5052003;28;20203;-48
2021/08/15 09:47:03;;;;;;;7.38;4.07;;;29.40;71.60;;;;;;5051252;28;20237;-48
2021/08/15 09:49:33;;;;;;;10.68;4.22;;;30.40;68.30;;;;;;5051683;28;20036;-49
2021/08/15 09:51:59;;;;;;;8.82;4.60;;;31.70;67.00;;;;;;5051733;28;20032;-49
2021/08/15 09:54:24;;;;;;;9.05;4.13;;;32.80;63.50;;;;;;5051732;28;20025;-50
2021/08/15 09:56:50;;;;;;;7.65;4.50;;;32.20;59.40;;;;;;5050893;28;20029;-50
2021/08/15 09:59:18;;;;;;;8.80;4.22;;;32.50;59.40;;;;;;5051584;28;20035;-50
2021/08/15 10:01:46;;;;;;;10.23;4.57;;;32.10;57.70;;;;;;5051414;28;20025;-50
2021/08/15 10:04:13;;;;;;;6.65;4.15;;;31.60;59.40;;;;;;5051623;28;20029;-50
2021/08/15 10:06:39;;;;;;;8.20;4.10;;;31.20;60.30;;;;;;5051345;28;20036;-48
2021/08/15 10:09:05;;;;;;;10.45;4.63;;;30.00;61.70;;;;;;5051417;28;20448;-49
2021/08/15 10:11:32;;;;;;;9.38;5.00;;;29.10;64.40;;;;;;5051757;28;20056;-48
2021/08/15 10:13:59;;;;;;;10.43;5.45;;;28.40;65.20;;;;;;5051201;28;20415;-47
2021/08/15 10:16:29;;;;;;;12.35;5.45;;;27.50;67.90;;;;;;5050674;28;20091;-48
2021/08/15 10:18:56;;;;;;;10.80;4.68;;;27.30;69.10;;;;;;5051373;28;20059;-48
2021/08/15 10:21:23;;;;;;;12.25;6.18;;;27.10;69.90;;;;;;5051222;28;20095;-47
2021/08/15 10:23:49;;;;;;;10.00;5.20;;;26.80;70.00;;;;;;5049843;28;20036;-46
2021/08/15 10:26:27;;;;;;;11.65;5.75;;;26.80;70.60;;;;;;5050340;28;20029;-50
2021/08/15 10:28:55;;;;;;;8.70;5.32;;;26.70;71.60;;;;;;5049687;28;20026;-50
2021/08/15 10:31:22;;;;;;;11.02;5.80;;;26.70;71.50;;;;;;5051009;28;20021;-50
2021/08/15 10:33:55;;;;;;;14.13;6.30;;;26.70;71.70;;;;;;5051090;28;20029;-47
2021/08/15 10:36:24;;;;;;;12.75;6.55;;;26.40;71.90;;;;;;5049249;28;20033;-47
2021/08/15 10:38:51;;;;;;;9.17;4.97;;;26.30;71.80;;;;;;5051275;28;20018;-47
2021/08/15 10:41:45;;;;;;;6.72;4.50;;;27.00;71.80;;;;;;5051047;28;20035;-50
2021/08/15 10:44:11;;;;;;;11.27;5.25;;;29.10;69.60;;;;;;5049619;28;20052;-48
2021/08/15 10:47:15;;;;;;;10.07;4.95;;;31.00;64.60;;;;;;5050059;28;20017;-51
2021/08/15 10:49:49;;;;;;;7.13;4.47;;;33.40;60.90;;;;;;5050769;28;20017;-51
2021/08/15 10:52:34;;;;;;;9.57;4.65;;;33.40;57.00;;;;;;5049248;28;20025;-49
2021/08/15 10:55:01;;;;;;;8.70;4.22;;;34.90;53.00;;;;;;5050807;28;20470;-51
2021/08/15 10:57:47;;;;;;;10.13;5.38;;;35.10;52.20;;;;;;5050148;28;20542;-51
2021/08/15 11:00:34;;;;;;;11.65;4.95;;;34.60;52.90;;;;;;5050269;28;20021;-51
2021/08/15 11:03:22;;;;;;;9.93;4.75;;;34.50;54.30;;;;;;5050350;28;20108;-51
2021/08/15 11:05:48;;;;;;;11.52;5.55;;;34.50;53.10;;;;;;5050098;28;20387;-49
2021/08/15 11:08:32;;;;;;;10.20;5.25;;;33.20;54.70;;;;;;5048539;28;20029;-48
2021/08/15 11:11:18;;;;;;;10.85;5.50;;;31.70;55.50;;;;;;5050371;28;20052;-48
2021/08/15 11:13:43;;;;;;;11.70;5.43;;;30.20;59.70;;;;;;5050284;28;20041;-48
2021/08/15 11:16:27;;;;;;;6.80;5.03;;;29.60;60.50;;;;;;5049682;28;20021;-48
2021/08/15 11:19:08;;;;;;;10.73;5.63;;;29.40;60.70;;;;;;5050462;28;20032;-48
2021/08/15 11:22:05;;;;;;;11.70;5.43;;;29.00;64.00;;;;;;5050342;28;20078;-48
2021/08/15 11:24:44;;;;;;;9.45;5.22;;;30.00;63.20;;;;;;5050198;28;20445;-48
2021/08/15 11:27:29;;;;;;;7.55;4.25;;;31.60;58.60;;;;;;5049701;28;20455;-50
2021/08/15 11:30:01;;;;;;;9.65;4.07;;;31.70;56.00;;;;;;5049957;28;20025;-48
2021/08/15 11:32:29;;;;;;;7.78;4.10;;;30.90;55.00;;;;;;5050067;28;20021;-47
2021/08/15 11:34:58;;;;;;;8.63;4.43;;;29.70;57.50;;;;;;5050119;28;20043;-47
2021/08/15 11:37:36;;;;;;;9.30;4.75;;;29.10;59.30;;;;;;5049166;28;20029;-47
2021/08/15 11:40:20;;;;;;;9.25;4.40;;;28.40;60.90;;;;;;5050485;28;20032;-49
2021/08/15 11:43:19;;;;;;;9.05;4.65;;;28.00;62.70;;;;;;5059528;28;20398;-47
2021/08/15 11:45:47;;;;;;;7.22;4.30;;;28.00;63.10;;;;;;5052009;28;20040;-47
2021/08/15 11:48:15;;;;;;;10.52;4.10;;;28.20;63.30;;;;;;5052914;28;20498;-47
2021/08/15 11:50:44;;;;;;;10.65;4.47;;;28.70;63.40;;;;;;5053225;28;20020;-48
2021/08/15 11:53:21;;;;;;;8.40;4.53;;;28.50;61.80;;;;;;5057918;28;20486;-47
2021/08/15 11:55:48;;;;;;;7.50;3.85;;;29.20;61.50;;;;;;5055013;28;20111;-48
2021/08/15 11:58:13;;;;;;;6.38;4.18;;;30.00;61.30;;;;;;5056373;28;20090;-47
2021/08/15 12:00:39;;;;;;;5.55;3.67;;;31.20;58.90;;;;;;5061297;28;20032;-48
2021/08/15 12:03:18;;;;;;;6.00;4.18;;;31.20;57.80;;;;;;5058656;28;20025;-49
2021/08/15 12:05:52;;;;;;;9.48;4.03;;;30.90;57.50;;;;;;5062237;28;20339;-48
2021/08/15 12:08:20;;;;;;;10.15;3.88;;;30.60;59.10;;;;;;5059430;28;20382;-47
2021/08/15 12:10:53;;;;;;;6.93;4.25;;;30.30;59.00;;;;;;5057556;28;20721;-47
2021/08/15 12:13:39;;;;;;;6.15;3.72;;;29.90;59.70;;;;;;5057361;28;20064;-48
2021/08/15 12:16:04;;;;;;;6.38;4.43;;;29.90;60.10;;;;;;5057444;28;20020;-48
2021/08/15 12:18:34;;;;;;;8.30;3.97;;;30.40;60.80;;;;;;5061076;28;20071;-48
2021/08/15 12:21:20;;;;;;;;;;;30.00;59.00;;;;;;5053031;28;20013;-49
2021/08/15 12:24:13;;;;;;;7.18;4.05;;;30.00;58.60;;;;;;5058892;28;19913;-48
2021/08/15 12:26:56;;;;;;;6.63;4.30;;;29.60;60.60;;;;;;5056617;28;20273;-49
2021/08/15 12:29:34;;;;;;;8.85;4.28;;;29.30;61.10;;;;;;5054953;28;20199;-49
2021/08/15 12:32:03;;;;;;;7.30;3.80;;;28.90;61.60;;;;;;5061032;28;20025;-49
2021/08/15 12:34:29;;;;;;;5.10;3.83;;;29.20;61.80;;;;;;5061334;28;20029;-49
2021/08/15 12:36:57;;;;;;;9.00;5.28;;;29.10;61.90;;;;;;5059828;28;20020;-48
2021/08/15 12:39:29;;;;;;;10.88;4.57;;;29.20;61.10;;;;;;5065241;28;20089;-50
2021/08/15 12:41:57;;;;;;;7.88;4.00;;;29.00;62.30;;;;;;5066031;28;20017;-48